createdAt,value
2023-04-10T00:03:43.333Z,9.81
2023-04-10T00:08:40.944Z,10.52
2023-04-10T00:13:34.275Z,9.57
2023-04-10T00:18:27.440Z,9.93
2023-04-10T00:23:20.614Z,10.50
2023-04-10T00:28:16.642Z,10.47
2023-04-10T00:33:09.889Z,9.72
2023-04-10T00:38:03.208Z,10.01
2023-04-10T00:42:56.530Z,10.17
2023-04-10T00:47:51.304Z,9.99
2023-04-10T00:52:44.644Z,10.02
2023-04-10T00:57:37.930Z,9.60
2023-04-10T01:02:32.466Z,10.25
2023-04-10T01:07:38.456Z,9.98
2023-04-10T01:12:48.652Z,10.12
2023-04-10T01:17:47.619Z,9.27
2023-04-10T01:23:11.364Z,9.94
2023-04-10T01:28:26.324Z,10.10
2023-04-10T01:33:24.097Z,10.03
2023-04-10T01:38:19.248Z,9.94
2023-04-10T01:43:14.513Z,9.94
2023-04-10T01:48:13.778Z,9.97
2023-04-10T01:53:09.333Z,9.89
2023-04-10T01:58:02.793Z,9.93
2023-04-10T02:02:58.680Z,9.90
2023-04-10T02:08:03.590Z,9.72
2023-04-10T02:13:02.476Z,9.84
2023-04-10T02:17:57.776Z,9.81
2023-04-10T02:22:53.389Z,9.47
2023-04-10T02:27:46.642Z,9.29
2023-04-10T02:32:42.124Z,9.75
2023-04-10T02:37:36.313Z,9.46
2023-04-10T02:42:30.785Z,9.68
2023-04-10T02:47:27.335Z,9.65
2023-04-10T02:52:22.065Z,9.39
2023-04-10T02:57:15.704Z,9.33
2023-04-10T03:02:10.561Z,8.75
2023-04-10T03:07:06.319Z,8.88
2023-04-10T03:12:05.563Z,9.28
2023-04-10T03:16:58.937Z,8.84
2023-04-10T03:21:52.521Z,9.38
2023-04-10T03:26:45.921Z,9.00
2023-04-10T03:31:40.826Z,9.07
2023-04-10T03:36:35.293Z,9.27
2023-04-10T03:41:28.523Z,9.33
2023-04-10T03:46:22.905Z,9.34
2023-04-10T03:51:18.943Z,9.31
2023-04-10T03:56:12.435Z,9.07
2023-04-10T04:01:07.001Z,8.07
2023-04-10T04:06:11.716Z,8.50
2023-04-10T04:11:21.653Z,7.90
2023-04-10T04:16:28.345Z,8.99
2023-04-10T04:21:35.982Z,9.09
2023-04-10T04:26:50.912Z,8.05
2023-04-10T04:32:13.722Z,9.35
2023-04-10T04:37:25.818Z,9.15
2023-04-10T04:42:44.745Z,9.27
2023-04-10T04:47:49.430Z,9.32
2023-04-10T04:52:55.732Z,9.11
2023-04-10T04:58:09.173Z,9.18
2023-04-10T05:03:14.320Z,9.29
2023-04-10T05:08:39.724Z,9.55
2023-04-10T05:13:51.884Z,9.94
2023-04-10T05:19:14.617Z,10.02
2023-04-10T05:24:21.719Z,10.22
2023-04-10T05:29:36.318Z,9.87
2023-04-10T05:34:49.779Z,10.22
2023-04-10T05:39:58.061Z,10.58
2023-04-10T05:45:10.972Z,10.72
2023-04-10T05:50:13.279Z,10.79
2023-04-10T05:55:38.898Z,10.53
2023-04-10T06:01:02.790Z,11.46
2023-04-10T06:06:16.569Z,11.59
2023-04-10T06:11:09.896Z,12.03
2023-04-10T06:16:05.617Z,12.07
2023-04-10T06:21:02.114Z,11.56
2023-04-10T06:25:58.569Z,11.92
2023-04-10T06:30:52.335Z,12.05
2023-04-10T06:35:47.503Z,12.06
2023-04-10T06:40:42.139Z,11.59
2023-04-10T06:45:35.467Z,11.39
2023-04-10T06:50:33.297Z,11.21
2023-04-10T06:55:28.187Z,11.62
2023-04-10T07:00:22.232Z,11.90
2023-04-10T07:05:16.083Z,11.77
2023-04-10T07:10:10.417Z,11.94
2023-04-10T07:15:05.628Z,11.77
2023-04-10T07:20:02.071Z,12.00
2023-04-10T07:24:55.220Z,12.09
2023-04-10T07:29:48.437Z,12.43
2023-04-10T07:34:46.111Z,12.43
2023-04-10T07:39:39.678Z,12.81
2023-04-10T07:44:32.967Z,13.02
2023-04-10T07:49:26.488Z,13.22
2023-04-10T07:54:21.385Z,13.46
2023-04-10T07:59:14.638Z,13.68
2023-04-10T08:04:09.601Z,13.93
2023-04-10T08:09:02.963Z,13.64
2023-04-10T08:13:58.712Z,14.38
2023-04-10T08:18:52.726Z,14.58
2023-04-10T08:23:47.202Z,14.85
2023-04-10T08:28:40.422Z,15.18
2023-04-10T08:33:35.105Z,15.60
2023-04-10T08:38:31.035Z,15.98
2023-04-10T08:43:24.248Z,16.82
2023-04-10T08:48:19.849Z,17.73
2023-04-10T08:53:16.651Z,18.63
2023-04-10T08:58:11.473Z,19.43
2023-04-10T09:03:08.560Z,19.70
2023-04-10T09:08:02.036Z,19.71
2023-04-10T09:12:59.679Z,19.78
2023-04-10T09:17:58.931Z,19.90
2023-04-10T09:22:52.293Z,20.06
2023-04-10T09:27:45.465Z,20.20
2023-04-10T09:32:42.422Z,20.09
2023-04-10T09:37:36.454Z,20.04
2023-04-10T09:42:34.748Z,20.00
2023-04-10T09:47:28.460Z,19.74
2023-04-10T09:52:26.459Z,19.74
2023-04-10T09:57:21.433Z,19.39
2023-04-10T10:02:17.068Z,19.42
2023-04-10T10:07:10.871Z,19.45
2023-04-10T10:12:08.670Z,19.45
2023-04-10T10:17:10.496Z,19.61
2023-04-10T10:22:04.416Z,19.60
2023-04-10T10:27:04.539Z,19.54
2023-04-10T10:32:07.914Z,19.66
2023-04-10T10:37:01.923Z,19.69
2023-04-10T10:42:03.631Z,19.72
2023-04-10T10:47:09.026Z,19.75
2023-04-10T10:52:05.387Z,19.57
2023-04-10T10:57:01.844Z,19.48
2023-04-10T11:02:18.283Z,20.37
2023-04-10T11:07:11.792Z,20.72
2023-04-10T11:12:07.869Z,20.93
2023-04-10T11:17:01.049Z,21.26
2023-04-10T11:22:07.638Z,21.14
2023-04-10T11:27:01.742Z,21.13
2023-04-10T11:31:58.252Z,21.43
2023-04-10T11:36:53.488Z,21.85
2023-04-10T11:41:49.721Z,21.84
2023-04-10T11:46:44.406Z,22.00
2023-04-10T11:51:38.152Z,21.38
2023-04-10T11:56:31.305Z,21.43
2023-04-10T12:01:34.896Z,21.34
2023-04-10T12:06:28.794Z,21.26
2023-04-10T12:11:23.655Z,20.87
2023-04-10T12:16:16.886Z,21.23
2023-04-10T12:21:11.834Z,20.84
2023-04-10T12:26:13.345Z,20.59
2023-04-10T12:31:07.496Z,20.65
2023-04-10T12:36:00.732Z,20.41
2023-04-10T12:41:02.240Z,20.48
2023-04-10T12:45:57.063Z,20.41
2023-04-10T12:50:54.222Z,19.92
2023-04-10T12:56:03.544Z,20.32
2023-04-10T13:00:57.531Z,20.09
2023-04-10T13:05:51.036Z,20.60
2023-04-10T13:10:44.249Z,20.48
2023-04-10T13:15:39.107Z,20.17
2023-04-10T13:20:33.117Z,19.80
2023-04-10T13:25:27.832Z,19.50
2023-04-10T13:30:21.057Z,19.67
2023-04-10T13:35:18.783Z,19.89
2023-04-10T13:40:12.449Z,20.00
2023-04-10T13:45:07.471Z,20.07
2023-04-10T13:50:00.660Z,20.00
2023-04-10T13:54:55.165Z,19.83
2023-04-10T13:59:48.385Z,19.94
2023-04-10T14:04:42.720Z,20.02
2023-04-10T14:09:36.057Z,19.79
2023-04-10T14:14:30.850Z,19.81
2023-04-10T14:19:24.100Z,19.67
2023-04-10T14:24:17.359Z,19.71
2023-04-10T14:29:10.980Z,19.14
2023-04-10T14:34:05.515Z,19.23
2023-04-10T14:38:58.771Z,19.21
2023-04-10T14:43:55.165Z,19.02
2023-04-10T14:48:48.963Z,18.76
2023-04-10T14:53:45.836Z,18.68
2023-04-10T14:58:38.937Z,18.47
2023-04-10T15:03:32.124Z,18.36
2023-04-10T15:08:25.431Z,18.13
2023-04-10T15:13:20.077Z,18.05
2023-04-10T15:18:13.485Z,17.67
2023-04-10T15:23:06.660Z,17.61
2023-04-10T15:28:01.376Z,17.48
2023-04-10T15:32:56.650Z,17.31
2023-04-10T15:37:49.877Z,17.40
2023-04-10T15:42:44.988Z,17.28
2023-04-10T15:47:38.224Z,17.17
2023-04-10T15:52:33.963Z,17.09
2023-04-10T15:57:27.090Z,16.97
2023-04-10T16:02:20.565Z,16.88
2023-04-10T16:07:13.845Z,16.52
2023-04-10T16:12:08.553Z,16.76
2023-04-10T16:17:02.509Z,16.68
2023-04-10T16:21:57.243Z,16.59
2023-04-10T16:26:50.554Z,16.50
2023-04-10T16:31:45.202Z,16.40
2023-04-10T16:36:38.439Z,16.20
2023-04-10T16:41:31.884Z,16.14
2023-04-10T16:46:27.407Z,15.52
2023-04-10T16:51:22.276Z,15.41
2023-04-10T16:56:16.073Z,15.99
2023-04-10T17:01:17.992Z,15.99
2023-04-10T17:06:11.666Z,15.50
2023-04-10T17:11:18.800Z,15.51
2023-04-10T17:16:15.366Z,15.81
2023-04-10T17:21:12.666Z,15.08
2023-04-10T17:26:08.378Z,15.15
2023-04-10T17:31:03.153Z,15.74
2023-04-10T17:35:59.207Z,15.06
2023-04-10T17:40:52.577Z,14.50
2023-04-10T17:45:49.664Z,15.05
2023-04-10T17:50:44.986Z,14.84
2023-04-10T17:55:40.040Z,15.14
2023-04-10T18:00:35.039Z,14.25
2023-04-10T18:05:30.585Z,14.33
2023-04-10T18:10:25.585Z,13.93
2023-04-10T18:15:18.970Z,14.89
2023-04-10T18:20:12.713Z,14.17
2023-04-10T18:25:11.652Z,14.16
2023-04-10T18:30:06.711Z,14.65
2023-04-10T18:35:03.695Z,14.44
2023-04-10T18:40:00.961Z,14.06
2023-04-10T18:45:01.008Z,13.71
2023-04-10T18:49:54.405Z,13.67
2023-04-10T18:54:47.746Z,13.39
2023-04-10T18:59:43.446Z,14.63
2023-04-10T19:04:38.265Z,14.65
2023-04-10T19:09:31.617Z,14.43
2023-04-10T19:14:25.048Z,14.23
2023-04-10T19:19:20.859Z,14.46
2023-04-10T19:24:16.651Z,14.56
2023-04-10T19:29:11.222Z,14.36
2023-04-10T19:34:09.304Z,14.46
2023-04-10T19:39:02.576Z,14.43
2023-04-10T19:43:58.544Z,13.90
2023-04-10T19:48:54.866Z,14.20
2023-04-10T19:53:51.588Z,14.28
2023-04-10T19:58:46.854Z,14.23
2023-04-10T20:03:46.077Z,13.66
2023-04-10T20:08:44.629Z,14.18
2023-04-10T20:13:42.690Z,14.10
2023-04-10T20:18:39.846Z,14.06
2023-04-10T20:23:40.217Z,13.65
2023-04-10T20:28:33.299Z,13.99
2023-04-10T20:33:26.802Z,12.73
2023-04-10T20:38:20.400Z,13.30
2023-04-10T20:43:15.312Z,13.59
2023-04-10T20:48:10.044Z,13.31
2023-04-10T20:53:03.670Z,13.08
2023-04-10T20:57:58.213Z,12.93
2023-04-10T21:02:53.374Z,13.09
2023-04-10T21:07:46.988Z,12.81
2023-04-10T21:12:43.448Z,11.82
2023-04-10T21:17:37.052Z,11.97
2023-04-10T21:22:31.721Z,13.02
2023-04-10T21:27:25.415Z,11.85
2023-04-10T21:32:18.786Z,12.51
2023-04-10T21:37:12.072Z,12.93
2023-04-10T21:42:09.338Z,12.46
2023-04-10T21:47:02.678Z,12.52
2023-04-10T21:51:57.734Z,12.34
2023-04-10T21:56:54.125Z,12.44
2023-04-10T22:01:48.980Z,12.29
2023-04-10T22:06:45.548Z,11.94
2023-04-10T22:11:41.904Z,12.89
2023-04-10T22:16:35.300Z,12.71
2023-04-10T22:21:31.796Z,12.71
2023-04-10T22:26:25.126Z,12.66
2023-04-10T22:31:20.346Z,12.67
2023-04-10T22:36:14.261Z,11.79
2023-04-10T22:41:10.970Z,11.94
2023-04-10T22:46:04.224Z,12.53
2023-04-10T22:50:57.465Z,11.78
2023-04-10T22:55:50.635Z,11.60
2023-04-10T23:00:45.261Z,11.70
2023-04-10T23:05:38.512Z,12.24
2023-04-10T23:10:33.811Z,12.24
2023-04-10T23:15:27.179Z,11.64
2023-04-10T23:20:22.159Z,12.10
2023-04-10T23:25:16.222Z,12.02
2023-04-10T23:30:10.058Z,11.25
2023-04-10T23:35:03.270Z,11.16
2023-04-10T23:39:57.870Z,11.61
2023-04-10T23:44:51.164Z,11.73
2023-04-10T23:49:44.414Z,11.10
2023-04-10T23:54:37.598Z,11.72
2023-04-10T23:59:32.144Z,10.70
